createdAt,value
2023-02-16T00:04:37.119Z,6.28
2023-02-16T00:07:03.573Z,7.07
2023-02-16T00:09:29.986Z,6.82
2023-02-16T00:12:16.383Z,9.15
2023-02-16T00:14:42.772Z,8.15
2023-02-16T00:17:11.215Z,7.85
2023-02-16T00:19:40.391Z,6.78
2023-02-16T00:22:08.141Z,7.18
2023-02-16T00:24:35.045Z,9.23
2023-02-16T00:27:01.933Z,7.63
2023-02-16T00:29:29.745Z,7.10
2023-02-16T00:31:57.850Z,7.05
2023-02-16T00:34:30.382Z,8.63
2023-02-16T00:39:26.564Z,9.13
2023-02-16T00:41:55.552Z,7.35
2023-02-16T00:44:33.192Z,7.18
2023-02-16T00:47:19.983Z,6.57
2023-02-16T00:49:49.011Z,7.38
2023-02-16T00:52:33.279Z,7.15
2023-02-16T00:55:01.318Z,6.20
2023-02-16T00:57:32.150Z,7.65
2023-02-16T01:00:02.469Z,7.60
2023-02-16T01:02:29.199Z,6.32
2023-02-16T01:04:55.770Z,6.80
2023-02-16T01:07:41.055Z,8.52
2023-02-16T01:10:26.325Z,7.38
2023-02-16T01:12:52.797Z,8.68
2023-02-16T01:15:24.453Z,8.52
2023-02-16T01:17:50.919Z,8.25
2023-02-16T01:20:20.595Z,6.55
2023-02-16T01:22:47.250Z,9.02
2023-02-16T01:25:15.083Z,8.05
2023-02-16T01:27:42.510Z,8.70
2023-02-16T01:30:19.443Z,7.78
2023-02-16T01:32:52.680Z,7.90
2023-02-16T01:35:21.218Z,8.70
2023-02-16T01:37:48.027Z,8.52
2023-02-16T01:40:44.358Z,9.13
2023-02-16T01:43:13.782Z,11.75
2023-02-16T01:45:45.209Z,9.20
2023-02-16T01:48:24.776Z,9.23
2023-02-16T01:51:22.132Z,9.98
2023-02-16T01:53:55.130Z,11.02
2023-02-16T01:56:27.890Z,12.48
2023-02-16T01:58:56.206Z,8.68
2023-02-16T02:01:42.447Z,8.95
2023-02-16T02:04:50.025Z,9.05
2023-02-16T02:07:25.531Z,10.63
2023-02-16T02:10:03.111Z,8.90
2023-02-16T02:12:55.564Z,9.20
2023-02-16T02:15:26.801Z,8.27
2023-02-16T02:17:53.346Z,10.13
2023-02-16T02:20:19.818Z,10.35
2023-02-16T02:23:45.289Z,10.20
2023-02-16T02:26:35.646Z,9.75
2023-02-16T02:29:07.777Z,8.30
2023-02-16T02:32:02.062Z,8.65
2023-02-16T02:34:39.646Z,8.18
2023-02-16T02:37:24.466Z,8.68
2023-02-16T02:40:32.532Z,7.63
2023-02-16T02:43:13.830Z,7.28
2023-02-16T02:45:45.447Z,9.82
2023-02-16T02:48:11.953Z,9.13
2023-02-16T02:51:03.991Z,8.75
2023-02-16T02:53:31.596Z,8.93
2023-02-16T02:56:20.088Z,8.82
2023-02-16T02:59:09.031Z,9.05
2023-02-16T03:01:37.364Z,12.27
2023-02-16T03:04:06.916Z,9.18
2023-02-16T03:06:43.967Z,8.95
2023-02-16T03:09:14.177Z,8.05
2023-02-16T03:12:00.360Z,9.20
2023-02-16T03:14:59.585Z,9.00
2023-02-16T03:17:51.828Z,7.32
2023-02-16T03:20:38.208Z,8.43
2023-02-16T03:23:25.185Z,7.43
2023-02-16T03:26:11.638Z,12.52
2023-02-16T03:29:01.007Z,10.48
2023-02-16T03:31:32.570Z,9.48
2023-02-16T03:33:59.366Z,8.00
2023-02-16T03:36:29.616Z,9.07
2023-02-16T03:38:57.128Z,7.80
2023-02-16T03:41:25.748Z,8.45
2023-02-16T03:43:52.228Z,9.50
2023-02-16T03:46:18.833Z,9.90
2023-02-16T03:48:45.282Z,10.52
2023-02-16T03:51:11.709Z,10.02
2023-02-16T03:53:38.170Z,11.75
2023-02-16T03:56:04.740Z,9.93
2023-02-16T03:58:31.272Z,10.18
2023-02-16T04:00:58.992Z,9.68
2023-02-16T04:03:26.785Z,10.10
2023-02-16T04:05:53.543Z,8.95
2023-02-16T04:08:19.980Z,10.07
2023-02-16T04:10:46.496Z,10.13
2023-02-16T04:13:12.978Z,9.48
2023-02-16T04:15:39.784Z,9.65
2023-02-16T04:18:06.309Z,9.30
2023-02-16T04:20:34.760Z,9.20
2023-02-16T04:23:02.496Z,8.07
2023-02-16T04:25:30.013Z,9.05
2023-02-16T04:27:56.761Z,8.85
2023-02-16T04:30:27.156Z,10.00
2023-02-16T04:32:54.130Z,8.50
2023-02-16T04:35:20.996Z,8.90
2023-02-16T04:37:47.597Z,10.25
2023-02-16T04:40:16.075Z,9.07
2023-02-16T04:42:43.532Z,8.80
2023-02-16T04:45:11.069Z,8.50
2023-02-16T04:47:38.016Z,12.52
2023-02-16T04:50:05.184Z,10.07
2023-02-16T04:52:32.162Z,8.98
2023-02-16T04:54:58.630Z,8.75
2023-02-16T04:57:25.531Z,9.05
2023-02-16T04:59:51.987Z,8.88
2023-02-16T05:02:18.448Z,7.70
2023-02-16T05:04:44.938Z,8.82
2023-02-16T05:07:11.520Z,8.95
2023-02-16T05:09:37.951Z,8.10
2023-02-16T05:12:23.013Z,7.80
2023-02-16T05:14:49.874Z,7.90
2023-02-16T05:17:21.841Z,8.20
2023-02-16T05:19:51.300Z,10.05
2023-02-16T05:22:18.396Z,12.77
2023-02-16T05:24:45.396Z,11.05
2023-02-16T05:27:20.624Z,11.57
2023-02-16T05:29:47.166Z,9.48
2023-02-16T05:32:14.108Z,9.57
2023-02-16T05:34:40.647Z,9.57
2023-02-16T05:37:07.546Z,9.70
2023-02-16T05:39:34.806Z,10.35
2023-02-16T05:42:01.322Z,8.63
2023-02-16T05:44:28.095Z,8.77
2023-02-16T05:46:54.578Z,9.45
2023-02-16T05:49:21.148Z,8.90
2023-02-16T05:51:47.653Z,14.93
2023-02-16T05:54:17.343Z,9.50
2023-02-16T05:56:49.733Z,10.73
2023-02-16T05:59:17.325Z,10.00
2023-02-16T06:01:44.596Z,10.45
2023-02-16T06:04:12.911Z,10.85
2023-02-16T06:06:40.411Z,9.40
2023-02-16T06:09:08.587Z,8.43
2023-02-16T06:11:38.241Z,10.75
2023-02-16T06:14:09.196Z,9.68
2023-02-16T06:16:37.661Z,9.00
2023-02-16T06:19:05.341Z,15.68
2023-02-16T06:21:32.520Z,14.23
2023-02-16T06:23:59.670Z,13.93
2023-02-16T06:26:26.552Z,12.52
2023-02-16T06:28:53.249Z,10.30
2023-02-16T06:31:19.925Z,10.68
2023-02-16T06:33:47.641Z,10.65
2023-02-16T06:36:14.683Z,15.52
2023-02-16T06:38:41.736Z,20.23
2023-02-16T06:41:08.750Z,12.13
2023-02-16T06:43:35.706Z,12.35
2023-02-16T06:46:02.594Z,19.50
2023-02-16T06:48:29.324Z,20.73
2023-02-16T06:50:55.765Z,24.23
2023-02-16T06:53:22.709Z,16.52
2023-02-16T06:55:50.777Z,12.70
2023-02-16T06:58:17.376Z,21.98
2023-02-16T07:00:43.991Z,22.45
2023-02-16T07:03:10.467Z,23.38
2023-02-16T07:05:37.891Z,14.55
2023-02-16T07:08:04.612Z,14.63
2023-02-16T07:10:47.531Z,15.05
2023-02-16T07:13:15.374Z,12.95
2023-02-16T07:15:41.821Z,12.88
2023-02-16T07:18:08.491Z,10.82
2023-02-16T07:20:34.893Z,13.20
2023-02-16T07:23:01.403Z,12.27
2023-02-16T07:25:28.658Z,11.77
2023-02-16T07:27:55.238Z,13.85
2023-02-16T07:30:22.178Z,11.90
2023-02-16T07:32:48.655Z,10.70
2023-02-16T07:35:15.140Z,11.15
2023-02-16T07:37:41.579Z,10.27
2023-02-16T07:40:08.466Z,13.40
2023-02-16T07:42:35.327Z,11.80
2023-02-16T07:45:01.891Z,11.75
2023-02-16T07:47:28.360Z,14.02
2023-02-16T07:49:54.796Z,11.48
2023-02-16T07:52:21.259Z,13.30
2023-02-16T07:54:48.869Z,10.77
2023-02-16T07:57:15.317Z,13.25
2023-02-16T07:59:42.141Z,13.40
2023-02-16T08:02:15.707Z,18.13
2023-02-16T08:04:42.446Z,20.67
2023-02-16T08:07:14.549Z,14.15
2023-02-16T08:09:41.146Z,16.15
2023-02-16T08:12:12.650Z,13.70
2023-02-16T08:14:39.938Z,13.68
2023-02-16T08:17:07.707Z,12.40
2023-02-16T08:19:34.792Z,12.90
2023-02-16T08:22:02.547Z,14.20
2023-02-16T08:24:29.342Z,13.07
2023-02-16T08:26:56.138Z,12.93
2023-02-16T08:29:24.038Z,16.83
2023-02-16T08:31:53.225Z,14.27
2023-02-16T08:34:20.490Z,14.38
2023-02-16T08:36:51.180Z,13.57
2023-02-16T08:39:20.229Z,13.07
2023-02-16T08:41:48.746Z,13.25
2023-02-16T08:44:17.012Z,13.32
2023-02-16T08:46:46.527Z,14.52
2023-02-16T08:49:14.593Z,15.10
2023-02-16T08:51:44.494Z,18.13
2023-02-16T08:54:15.777Z,17.05
2023-02-16T08:56:46.110Z,19.05
2023-02-16T08:59:16.947Z,22.80
2023-02-16T09:01:43.482Z,19.52
2023-02-16T09:04:09.940Z,21.65
2023-02-16T09:06:38.742Z,20.10
2023-02-16T09:09:05.968Z,20.63
2023-02-16T09:11:32.545Z,21.42
2023-02-16T09:13:59.179Z,20.60
2023-02-16T09:16:29.176Z,18.35
2023-02-16T09:18:57.342Z,18.67
2023-02-16T09:21:25.733Z,19.02
2023-02-16T09:23:55.706Z,20.17
2023-02-16T09:26:24.558Z,15.30
2023-02-16T09:28:51.262Z,14.15
2023-02-16T09:31:20.454Z,18.00
2023-02-16T09:33:46.969Z,14.77
2023-02-16T09:36:13.996Z,16.15
2023-02-16T09:38:40.957Z,18.40
2023-02-16T09:41:18.403Z,17.92
2023-02-16T09:43:57.813Z,18.52
2023-02-16T09:46:26.055Z,19.45
2023-02-16T09:48:53.132Z,18.95
2023-02-16T09:51:33.854Z,20.48
2023-02-16T09:54:15.369Z,19.08
2023-02-16T09:57:08.267Z,19.90
2023-02-16T09:59:53.920Z,17.42
2023-02-16T10:02:35.246Z,20.27
2023-02-16T10:05:08.436Z,17.65
2023-02-16T10:07:51.292Z,17.58
2023-02-16T10:10:23.389Z,20.55
2023-02-16T10:12:59.074Z,19.10
2023-02-16T10:15:30.293Z,19.98
2023-02-16T10:18:06.563Z,21.83
2023-02-16T10:20:42.756Z,21.05
2023-02-16T10:23:31.383Z,21.10
2023-02-16T10:26:05.786Z,20.48
2023-02-16T10:28:38.185Z,21.25
2023-02-16T10:31:13.818Z,21.30
2023-02-16T10:34:11.344Z,19.38
2023-02-16T10:37:15.705Z,20.58
2023-02-16T10:40:00.570Z,19.80
2023-02-16T10:42:27.138Z,15.75
2023-02-16T10:45:18.676Z,16.35
2023-02-16T10:47:46.264Z,17.52
2023-02-16T10:50:25.267Z,19.65
2023-02-16T10:52:55.964Z,18.52
2023-02-16T10:55:22.541Z,16.50
2023-02-16T10:57:59.371Z,21.45
2023-02-16T11:00:52.192Z,20.65
2023-02-16T11:03:29.871Z,21.35
2023-02-16T11:05:56.522Z,22.67
2023-02-16T11:08:25.580Z,21.60
2023-02-16T11:10:54.166Z,19.50
2023-02-16T11:13:26.929Z,18.77
2023-02-16T11:15:56.031Z,14.65
2023-02-16T11:18:36.569Z,17.48
2023-02-16T11:21:04.352Z,17.50
2023-02-16T11:23:36.976Z,19.27
2023-02-16T11:26:12.416Z,16.98
2023-02-16T11:28:44.730Z,20.75
2023-02-16T11:31:18.445Z,15.10
2023-02-16T11:34:05.844Z,53.55
2023-02-16T11:36:41.901Z,21.30
2023-02-16T11:39:20.291Z,18.05
2023-02-16T11:41:52.687Z,22.42
2023-02-16T11:44:34.343Z,19.23
2023-02-16T11:47:04.220Z,16.60
2023-02-16T11:49:42.301Z,16.30
2023-02-16T11:52:23.748Z,17.30
2023-02-16T11:54:58.331Z,15.77
2023-02-16T11:57:28.559Z,19.52
2023-02-16T11:59:57.113Z,17.58
2023-02-16T12:03:06.283Z,15.55
2023-02-16T12:05:50.540Z,13.38
2023-02-16T12:08:29.033Z,13.38
2023-02-16T12:11:09.834Z,14.82
2023-02-16T12:13:50.739Z,15.75
2023-02-16T12:16:25.881Z,13.23
2023-02-16T12:18:52.459Z,14.40
2023-02-16T12:21:54.029Z,17.63
2023-02-16T12:24:48.063Z,17.73
2023-02-16T12:27:21.958Z,17.10
2023-02-16T12:29:53.808Z,18.58
2023-02-16T12:32:37.690Z,17.77
2023-02-16T12:35:13.285Z,17.92
2023-02-16T12:38:01.099Z,18.83
2023-02-16T12:40:47.513Z,16.90
2023-02-16T12:43:43.116Z,17.92
2023-02-16T12:46:17.583Z,16.70
2023-02-16T12:48:50.783Z,18.80
2023-02-16T12:51:25.898Z,14.80
2023-02-16T12:54:01.065Z,18.38
2023-02-16T12:56:41.584Z,13.77
2023-02-16T12:59:37.613Z,17.98
2023-02-16T13:02:12.085Z,13.30
2023-02-16T13:04:56.600Z,13.52
2023-02-16T13:07:35.516Z,17.75
2023-02-16T13:10:18.037Z,18.02
2023-02-16T13:12:50.621Z,18.92
2023-02-16T13:15:23.449Z,19.33
2023-02-16T13:17:56.715Z,19.10
2023-02-16T13:20:23.984Z,15.82
2023-02-16T13:23:11.801Z,18.23
2023-02-16T13:26:38.634Z,14.88
2023-02-16T13:29:17.197Z,16.65
2023-02-16T13:31:59.093Z,14.70
2023-02-16T13:34:44.240Z,18.35
2023-02-16T13:37:23.979Z,17.38
2023-02-16T13:40:02.322Z,17.40
2023-02-16T13:42:49.959Z,16.38
2023-02-16T13:45:26.023Z,18.15
2023-02-16T13:47:55.103Z,17.55
2023-02-16T13:50:22.321Z,17.35
2023-02-16T13:52:51.169Z,17.85
2023-02-16T13:55:37.455Z,17.00
2023-02-16T13:58:13.467Z,16.73
2023-02-16T14:00:47.373Z,16.58
2023-02-16T14:03:16.565Z,17.98
2023-02-16T14:05:48.554Z,17.30
2023-02-16T14:08:29.045Z,15.95
2023-02-16T14:11:01.631Z,14.15
2023-02-16T14:13:32.426Z,16.15
2023-02-16T14:16:22.415Z,17.05
2023-02-16T14:19:16.856Z,16.33
2023-02-16T14:21:46.959Z,16.35
2023-02-16T14:24:35.732Z,16.67
2023-02-16T14:27:05.249Z,14.77
2023-02-16T14:29:38.200Z,16.38
2023-02-16T14:32:13.004Z,15.45
2023-02-16T14:34:46.036Z,14.40
2023-02-16T14:37:16.137Z,16.90
2023-02-16T14:40:06.996Z,14.98
2023-02-16T14:42:35.876Z,14.93
2023-02-16T14:45:30.586Z,14.10
2023-02-16T14:48:13.594Z,14.80
2023-02-16T14:53:45.644Z,14.35
2023-02-16T14:56:16.718Z,14.48
2023-02-16T14:59:01.521Z,14.65
2023-02-16T15:01:28.568Z,13.35
2023-02-16T15:03:57.988Z,13.00
2023-02-16T15:06:38.654Z,12.43
2023-02-16T15:09:15.719Z,12.27
2023-02-16T15:12:13.454Z,11.85
2023-02-16T15:14:48.788Z,11.90
2023-02-16T15:17:21.466Z,11.95
2023-02-16T15:19:48.290Z,12.45
2023-02-16T15:22:21.448Z,11.40
2023-02-16T15:25:08.151Z,9.75
2023-02-16T15:27:34.603Z,11.52
2023-02-16T15:30:07.424Z,10.70
2023-02-16T15:32:33.967Z,10.88
2023-02-16T15:35:10.880Z,11.13
2023-02-16T15:37:38.139Z,10.45
2023-02-16T15:40:26.621Z,10.57
2023-02-16T15:42:55.837Z,10.23
2023-02-16T15:45:32.461Z,9.90
2023-02-16T15:48:20.589Z,9.93
2023-02-16T15:50:48.276Z,9.30
2023-02-16T15:53:22.062Z,9.30
2023-02-16T15:55:48.796Z,9.13
2023-02-16T15:58:15.985Z,9.38
2023-02-16T16:00:45.035Z,10.00
2023-02-16T16:03:18.726Z,9.07
2023-02-16T16:05:58.498Z,8.95
2023-02-16T16:08:27.112Z,8.55
2023-02-16T16:10:54.474Z,8.57
2023-02-16T16:13:25.371Z,8.57
2023-02-16T16:15:53.800Z,8.60
2023-02-16T16:18:46.122Z,7.70
2023-02-16T16:21:33.517Z,8.35
2023-02-16T16:24:06.385Z,7.75
2023-02-16T16:26:49.362Z,8.63
2023-02-16T16:31:56.770Z,7.32
2023-02-16T16:34:38.199Z,7.35
2023-02-16T16:37:07.554Z,6.97
2023-02-16T16:39:40.364Z,7.65
2023-02-16T16:42:17.748Z,8.13
2023-02-16T16:44:54.504Z,7.20
2023-02-16T16:50:09.634Z,7.15
2023-02-16T16:52:41.561Z,7.28
2023-02-16T16:55:21.309Z,7.53
2023-02-16T16:57:57.676Z,7.28
2023-02-16T17:00:27.514Z,7.03
2023-02-16T17:02:54.019Z,7.10
2023-02-16T17:05:20.621Z,7.38
2023-02-16T17:07:49.219Z,6.88
2023-02-16T17:10:17.569Z,5.72
2023-02-16T17:12:45.853Z,6.75
2023-02-16T17:15:42.619Z,6.20
2023-02-16T17:18:17.361Z,6.75
2023-02-16T17:20:45.515Z,6.50
2023-02-16T17:23:13.805Z,6.68
2023-02-16T17:25:40.662Z,6.15
2023-02-16T17:28:07.847Z,7.05
2023-02-16T17:30:35.334Z,7.22
2023-02-16T17:33:02.612Z,6.60
2023-02-16T17:35:31.194Z,6.97
2023-02-16T17:37:57.715Z,6.63
2023-02-16T17:40:26.035Z,6.43
2023-02-16T17:42:52.645Z,6.45
2023-02-16T17:45:21.991Z,6.78
2023-02-16T17:47:51.338Z,7.07
2023-02-16T17:50:19.744Z,6.82
2023-02-16T17:52:46.256Z,5.80
2023-02-16T17:55:13.453Z,6.25
2023-02-16T17:57:39.933Z,5.63
2023-02-16T18:00:08.720Z,5.95
2023-02-16T18:02:35.398Z,5.78
2023-02-16T18:05:01.847Z,6.00
2023-02-16T18:07:28.386Z,5.93
2023-02-16T18:09:55.293Z,6.18
2023-02-16T18:12:21.769Z,5.68
2023-02-16T18:14:48.270Z,6.05
2023-02-16T18:17:14.692Z,6.13
2023-02-16T18:19:41.213Z,5.93
2023-02-16T18:22:07.712Z,5.70
2023-02-16T18:24:34.241Z,5.88
2023-02-16T18:27:00.714Z,6.63
2023-02-16T18:29:27.210Z,5.85
2023-02-16T18:31:53.767Z,5.82
2023-02-16T18:34:20.360Z,6.20
2023-02-16T18:36:46.817Z,6.05
2023-02-16T18:39:13.533Z,6.32
2023-02-16T18:41:40.015Z,7.25
2023-02-16T18:44:06.564Z,6.82
2023-02-16T18:46:33.592Z,6.82
2023-02-16T18:49:00.148Z,7.50
2023-02-16T18:51:29.373Z,7.20
2023-02-16T18:53:56.916Z,7.30
2023-02-16T18:56:23.535Z,6.43
2023-02-16T18:58:50.119Z,7.57
2023-02-16T19:01:25.686Z,7.45
2023-02-16T19:03:52.319Z,7.32
2023-02-16T19:06:18.823Z,7.68
2023-02-16T19:08:45.838Z,7.88
2023-02-16T19:11:12.661Z,8.48
2023-02-16T19:13:39.163Z,9.38
2023-02-16T19:16:06.151Z,9.13
2023-02-16T19:18:32.962Z,10.10
2023-02-16T19:20:59.436Z,9.93
2023-02-16T19:23:25.932Z,9.30
2023-02-16T19:25:52.411Z,9.38
2023-02-16T19:28:19.016Z,9.90
2023-02-16T19:30:45.501Z,10.55
2023-02-16T19:33:12.030Z,9.90
2023-02-16T19:35:38.468Z,10.00
2023-02-16T19:38:05.001Z,9.15
2023-02-16T19:40:31.736Z,9.48
2023-02-16T19:42:58.208Z,10.43
2023-02-16T19:45:24.861Z,9.85
2023-02-16T19:47:51.412Z,9.73
2023-02-16T19:50:18.153Z,9.82
2023-02-16T19:52:44.637Z,10.70
2023-02-16T19:55:11.708Z,10.13
2023-02-16T19:57:38.376Z,10.10
2023-02-16T20:00:05.876Z,9.93
2023-02-16T20:02:32.394Z,10.70
2023-02-16T20:04:58.837Z,11.00
2023-02-16T20:07:25.350Z,10.10
2023-02-16T20:09:51.881Z,10.15
2023-02-16T20:12:18.403Z,10.88
2023-02-16T20:14:44.842Z,10.70
2023-02-16T20:17:11.277Z,10.55
2023-02-16T20:19:37.752Z,10.68
2023-02-16T20:22:04.149Z,9.93
2023-02-16T20:24:30.592Z,10.70
2023-02-16T20:26:57.197Z,10.65
2023-02-16T20:29:23.648Z,10.52
2023-02-16T20:31:53.575Z,10.90
2023-02-16T20:34:20.913Z,10.75
2023-02-16T20:36:47.523Z,11.13
2023-02-16T20:39:14.692Z,11.73
2023-02-16T20:41:41.438Z,10.77
2023-02-16T20:44:08.016Z,11.43
2023-02-16T20:46:34.661Z,12.45
2023-02-16T20:49:01.342Z,11.80
2023-02-16T20:51:27.944Z,11.75
2023-02-16T20:53:54.397Z,12.18
2023-02-16T20:56:23.874Z,11.55
2023-02-16T20:58:52.138Z,11.43
2023-02-16T21:01:25.040Z,12.07
2023-02-16T21:03:53.045Z,13.13
2023-02-16T21:06:20.256Z,12.00
2023-02-16T21:08:47.341Z,12.38
2023-02-16T21:11:14.962Z,13.00
2023-02-16T21:13:42.304Z,12.30
2023-02-16T21:16:09.432Z,12.20
2023-02-16T21:18:39.386Z,12.10
2023-02-16T21:21:07.121Z,12.68
2023-02-16T21:23:33.703Z,12.40
2023-02-16T21:26:02.223Z,12.10
2023-02-16T21:28:28.788Z,12.27
2023-02-16T21:30:56.027Z,12.95
2023-02-16T21:33:22.618Z,11.55
2023-02-16T21:35:49.083Z,11.93
2023-02-16T21:38:17.694Z,11.23
2023-02-16T21:41:02.979Z,12.02
2023-02-16T21:43:29.487Z,11.30
2023-02-16T21:46:02.185Z,12.38
2023-02-16T21:48:47.487Z,10.98
2023-02-16T21:51:19.950Z,11.30
2023-02-16T21:53:47.423Z,11.40
2023-02-16T21:56:58.102Z,11.02
2023-02-16T21:59:24.698Z,11.18
2023-02-16T22:01:51.898Z,10.68
2023-02-16T22:04:21.646Z,10.90
2023-02-16T22:06:50.325Z,12.07
2023-02-16T22:09:19.776Z,10.63
2023-02-16T22:11:47.584Z,11.25
2023-02-16T22:14:14.222Z,11.43
2023-02-16T22:16:41.545Z,11.52
2023-02-16T22:19:11.219Z,11.32
2023-02-16T22:21:39.858Z,10.85
2023-02-16T22:24:07.076Z,10.57
2023-02-16T22:26:35.578Z,11.00
2023-02-16T22:29:03.766Z,10.75
2023-02-16T22:31:30.374Z,11.27
2023-02-16T22:34:02.563Z,10.95
2023-02-16T22:36:29.092Z,10.27
2023-02-16T22:38:56.214Z,10.57
2023-02-16T22:41:23.780Z,10.88
2023-02-16T22:43:55.435Z,10.07
2023-02-16T22:46:24.034Z,10.68
2023-02-16T22:48:51.885Z,10.98
2023-02-16T22:51:20.097Z,10.50
2023-02-16T22:53:47.702Z,9.88
2023-02-16T22:56:16.556Z,10.57
2023-02-16T22:58:43.886Z,10.38
2023-02-16T23:01:18.941Z,10.60
2023-02-16T23:03:49.987Z,11.13
2023-02-16T23:06:19.876Z,10.85
2023-02-16T23:08:51.474Z,10.82
2023-02-16T23:11:18.296Z,10.38
2023-02-16T23:13:44.987Z,11.30
2023-02-16T23:16:14.080Z,10.35
2023-02-16T23:18:41.178Z,10.30
2023-02-16T23:21:15.934Z,11.15
2023-02-16T23:23:42.565Z,10.55
2023-02-16T23:26:09.658Z,10.55
2023-02-16T23:28:38.134Z,11.10
2023-02-16T23:31:05.049Z,10.45
2023-02-16T23:33:31.701Z,11.07
2023-02-16T23:35:58.632Z,10.43
2023-02-16T23:38:25.566Z,10.70
2023-02-16T23:41:00.959Z,10.27
2023-02-16T23:43:27.459Z,10.02
2023-02-16T23:45:54.233Z,10.35
2023-02-16T23:48:21.814Z,9.82
2023-02-16T23:50:49.674Z,10.23
2023-02-16T23:53:17.080Z,9.88
2023-02-16T23:55:43.770Z,10.63
2023-02-16T23:58:10.216Z,10.23
